Tokuyo Maru No.15 — JD2184 — position and weather

sailwx.info

Track history (hours):
 
Tides and Currents Weather Stations Pressure Air Temp Water Temp Dewpoint Dewpoint Depression Visibility Wind Speed Wind Dir Waves Ship Positions

Tokuyo Maru No.15

Last reported at 2016-Apr-30 14:09 UTC. Time now 2016-May-01 07:59 UTC.
Position N 34°05' E 134°60'.

Length 66 m; draft 4.5 m.

Type: Tanker. MMSI: 431402034.

Date/timePositionNaut miles runAvg speedWind from/ knotsBaromVisibWave heightAir tempDewpointWater temp
2016-Apr-30 14:09N 34°05' E 134°60'712.1
2016-Apr-30 13:32N 34°12' E 134°59'1411.4
2016-Apr-30 12:18N 34°25' E 135°06'912.2
2016-Apr-30 11:33N 34°30' E 135°16'8 1.3
2016-Apr-30 05:19N 34°32' E 135°25'6 7.2
2016-Apr-30 04:33N 34°31' E 135°19'  
2016-Apr-26 16:27N 35°03' E 139°34'1112.6
2016-Apr-26 15:33N 35°11' E 139°44'1111.6
2016-Apr-26 14:34N 35°22' E 139°42'1211.9
2016-Apr-26 13:33N 35°30' E 139°53'8 8.0
2016-Apr-26 12:34N 35°31' E 140°03'0 0.0
2016-Apr-26 11:33N 35°31' E 140°03'0 0.0
2016-Apr-26 10:33N 35°31' E 140°03'0 0.0
2016-Apr-26 09:33N 35°31' E 140°03'0 0.0
2016-Apr-26 08:33N 35°31' E 140°03'0 0.0
2016-Apr-26 07:33N 35°31' E 140°03'0 0.0
2016-Apr-26 06:33N 35°31' E 140°03'2 1.8
2016-Apr-26 05:33N 35°31' E 140°01'6 5.1
2016-Apr-26 04:28N 35°29' E 139°54'0 0.0
2016-Apr-26 03:17N 35°29' E 139°54'5 6.5
2016-Apr-26 02:33N 35°27' E 139°49'1110.2
2016-Apr-26 01:30N 35°16' E 139°46'  
Track history (hours):
 
Tides and Currents Weather Stations Pressure Air Temp Water Temp Dewpoint Dewpoint Depression Visibility Wind Speed Wind Dir Waves Ship Positions

Tokuyo Maru No.15

Last reported at 2016-Apr-30 14:09 UTC. Time now 2016-May-01 07:59 UTC.
Position N 34°05' E 134°60'.

Length 66 m; draft 4.5 m.

Type: Tanker. MMSI: 431402034.

Date/timePositionNaut miles runAvg speedWind from/ knotsBaromVisibWave heightAir tempDewpointWater temp
2016-Apr-30 14:09N 34°05' E 134°60'712.1
2016-Apr-30 13:32N 34°12' E 134°59'1411.4
2016-Apr-30 12:18N 34°25' E 135°06'912.2
2016-Apr-30 11:33N 34°30' E 135°16'8 1.3
2016-Apr-30 05:19N 34°32' E 135°25'6 7.2
2016-Apr-30 04:33N 34°31' E 135°19'  
2016-Apr-26 16:27N 35°03' E 139°34'1112.6
2016-Apr-26 15:33N 35°11' E 139°44'1111.6
2016-Apr-26 14:34N 35°22' E 139°42'1211.9
2016-Apr-26 13:33N 35°30' E 139°53'8 8.0
2016-Apr-26 12:34N 35°31' E 140°03'0 0.0
2016-Apr-26 11:33N 35°31' E 140°03'0 0.0
2016-Apr-26 10:33N 35°31' E 140°03'0 0.0
2016-Apr-26 09:33N 35°31' E 140°03'0 0.0
2016-Apr-26 08:33N 35°31' E 140°03'0 0.0
2016-Apr-26 07:33N 35°31' E 140°03'0 0.0
2016-Apr-26 06:33N 35°31' E 140°03'2 1.8
2016-Apr-26 05:33N 35°31' E 140°01'6 5.1
2016-Apr-26 04:28N 35°29' E 139°54'0 0.0
2016-Apr-26 03:17N 35°29' E 139°54'5 6.5
2016-Apr-26 02:33N 35°27' E 139°49'1110.2
2016-Apr-26 01:30N 35°16' E 139°46'  

Dump ship's entire track history